createdAt,value
2023-05-21T00:02:20.187Z,13.00
2023-05-21T00:04:47.510Z,12.13
2023-05-21T00:07:15.362Z,12.13
2023-05-21T00:09:42.035Z,13.02
2023-05-21T00:12:09.132Z,12.27
2023-05-21T00:14:36.019Z,13.05
2023-05-21T00:17:02.594Z,13.38
2023-05-21T00:19:29.180Z,12.90
2023-05-21T00:21:55.983Z,12.60
2023-05-21T00:24:22.491Z,12.60
2023-05-21T00:26:48.954Z,14.23
2023-05-21T00:29:15.664Z,12.52
2023-05-21T00:31:42.227Z,12.63
2023-05-21T00:34:09.113Z,13.35
2023-05-21T00:36:35.634Z,12.38
2023-05-21T00:39:02.414Z,13.55
2023-05-21T00:41:30.175Z,12.63
2023-05-21T00:43:57.182Z,13.13
2023-05-21T00:46:24.140Z,11.57
2023-05-21T00:48:51.237Z,14.55
2023-05-21T00:51:18.700Z,13.88
2023-05-21T00:53:46.654Z,12.70
2023-05-21T00:56:13.712Z,12.70
2023-05-21T00:58:41.393Z,13.00
2023-05-21T01:01:13.539Z,13.63
2023-05-21T01:03:41.067Z,13.00
2023-05-21T01:06:09.154Z,12.75
2023-05-21T01:08:38.791Z,12.80
2023-05-21T01:11:07.478Z,13.45
2023-05-21T01:13:37.552Z,13.52
2023-05-21T01:16:06.622Z,12.57
2023-05-21T01:18:40.146Z,13.25
2023-05-21T01:21:07.540Z,12.95
2023-05-21T01:23:34.457Z,13.25
2023-05-21T01:26:01.007Z,13.00
2023-05-21T01:28:27.731Z,12.50
2023-05-21T01:30:58.613Z,13.30
2023-05-21T01:33:33.460Z,12.13
2023-05-21T01:36:06.686Z,12.13
2023-05-21T01:38:43.448Z,12.90
2023-05-21T01:41:15.612Z,12.35
2023-05-21T01:43:45.621Z,13.00
2023-05-21T01:46:17.199Z,12.73
2023-05-21T01:48:44.217Z,12.13
2023-05-21T01:51:11.552Z,13.30
2023-05-21T01:53:40.634Z,13.48
2023-05-21T01:56:07.753Z,13.68
2023-05-21T01:58:34.441Z,13.75
2023-05-21T02:01:00.949Z,11.90
2023-05-21T02:03:31.015Z,12.48
2023-05-21T02:05:57.802Z,11.63
2023-05-21T02:08:25.540Z,12.77
2023-05-21T02:10:52.190Z,12.80
2023-05-21T02:13:24.938Z,12.30
2023-05-21T02:15:54.776Z,13.50
2023-05-21T02:18:22.213Z,12.18
2023-05-21T02:20:48.843Z,12.70
2023-05-21T02:23:15.681Z,12.00
2023-05-21T02:25:42.547Z,11.93
2023-05-21T02:28:09.078Z,12.77
2023-05-21T02:30:35.991Z,12.90
2023-05-21T02:33:02.955Z,12.73
2023-05-21T02:35:29.908Z,12.30
2023-05-21T02:37:59.202Z,13.88
2023-05-21T02:40:25.856Z,12.02
2023-05-21T02:42:52.379Z,13.95
2023-05-21T02:45:20.946Z,12.68
2023-05-21T02:47:47.658Z,12.10
2023-05-21T02:50:17.459Z,12.95
2023-05-21T02:52:49.515Z,12.45
2023-05-21T02:55:16.200Z,12.88
2023-05-21T02:57:42.794Z,12.60
2023-05-21T03:00:10.593Z,13.32
2023-05-21T03:02:38.806Z,13.35
2023-05-21T03:05:06.074Z,12.30
2023-05-21T03:07:33.370Z,13.13
2023-05-21T03:09:59.974Z,12.63
2023-05-21T03:12:26.462Z,12.40
2023-05-21T03:14:53.086Z,11.73
2023-05-21T03:17:20.630Z,13.38
2023-05-21T03:19:49.030Z,12.85
2023-05-21T03:22:15.980Z,12.77
2023-05-21T03:24:42.474Z,12.65
2023-05-21T03:27:09.200Z,13.00
2023-05-21T03:29:36.219Z,12.05
2023-05-21T03:32:03.649Z,13.18
2023-05-21T03:34:34.504Z,13.38
2023-05-21T03:37:01.927Z,13.88
2023-05-21T03:39:29.211Z,13.07
2023-05-21T03:41:56.753Z,12.43
2023-05-21T03:44:32.791Z,13.57
2023-05-21T03:47:15.794Z,12.20
2023-05-21T03:49:42.720Z,13.23
2023-05-21T03:52:09.309Z,13.02
2023-05-21T03:54:35.965Z,12.23
2023-05-21T03:57:06.181Z,12.45
2023-05-21T03:59:33.204Z,11.73
2023-05-21T04:02:00.312Z,12.38
2023-05-21T04:04:29.292Z,12.65
2023-05-21T04:06:56.006Z,12.60
2023-05-21T04:09:23.033Z,12.45
2023-05-21T04:11:51.755Z,11.88
2023-05-21T04:14:18.298Z,12.70
2023-05-21T04:16:44.884Z,12.30
2023-05-21T04:19:11.480Z,12.00
2023-05-21T04:21:37.960Z,13.40
2023-05-21T04:24:05.188Z,13.88
2023-05-21T04:26:50.128Z,11.25
2023-05-21T04:29:21.303Z,12.18
2023-05-21T04:31:49.713Z,12.32
2023-05-21T04:34:19.903Z,12.52
2023-05-21T04:36:46.544Z,11.77
2023-05-21T04:39:14.735Z,11.20
2023-05-21T04:41:41.251Z,11.02
2023-05-21T04:44:08.441Z,11.35
2023-05-21T04:46:35.226Z,11.45
2023-05-21T04:49:03.064Z,12.10
2023-05-21T04:51:31.351Z,12.30
2023-05-21T04:53:58.201Z,10.77
2023-05-21T04:56:27.371Z,10.82
2023-05-21T04:58:54.328Z,11.38
2023-05-21T05:01:23.590Z,11.63
2023-05-21T05:03:50.555Z,11.43
2023-05-21T05:06:17.500Z,11.27
2023-05-21T05:08:46.233Z,12.70
2023-05-21T05:11:14.286Z,11.32
2023-05-21T05:13:43.681Z,11.45
2023-05-21T05:16:10.253Z,11.27
2023-05-21T05:18:37.172Z,11.55
2023-05-21T05:21:03.839Z,11.75
2023-05-21T05:23:30.603Z,11.38
2023-05-21T05:25:57.265Z,12.15
2023-05-21T05:28:23.778Z,10.35
2023-05-21T05:30:50.310Z,11.27
2023-05-21T05:33:22.269Z,11.13
2023-05-21T05:35:49.110Z,11.38
2023-05-21T05:38:15.639Z,10.98
2023-05-21T05:40:42.100Z,10.75
2023-05-21T05:43:08.737Z,11.07
2023-05-21T05:45:35.434Z,10.20
2023-05-21T05:48:06.463Z,10.50
2023-05-21T05:50:32.999Z,11.00
2023-05-21T05:52:59.521Z,10.65
2023-05-21T05:55:26.823Z,11.05
2023-05-21T05:57:54.193Z,11.48
2023-05-21T06:00:21.338Z,10.70
2023-05-21T06:02:49.907Z,10.77
2023-05-21T06:05:16.708Z,11.05
2023-05-21T06:07:43.307Z,11.43
2023-05-21T06:10:10.217Z,12.13
2023-05-21T06:12:36.874Z,11.15
2023-05-21T06:15:04.037Z,10.23
2023-05-21T06:17:31.692Z,9.82
2023-05-21T06:19:58.287Z,10.38
2023-05-21T06:22:26.716Z,10.63
2023-05-21T06:24:53.334Z,10.73
2023-05-21T06:27:20.586Z,11.10
2023-05-21T06:29:48.296Z,10.45
2023-05-21T06:32:14.845Z,10.75
2023-05-21T06:34:41.876Z,12.52
2023-05-21T06:37:08.383Z,10.45
2023-05-21T06:39:34.866Z,10.23
2023-05-21T06:42:01.776Z,11.13
2023-05-21T06:44:51.664Z,10.98
2023-05-21T06:47:37.387Z,10.95
2023-05-21T06:50:04.243Z,10.40
2023-05-21T06:52:31.802Z,11.05
2023-05-21T06:54:59.679Z,9.85
2023-05-21T06:57:29.280Z,9.70
2023-05-21T06:59:57.182Z,10.35
2023-05-21T07:02:23.787Z,9.98
2023-05-21T07:04:50.394Z,9.55
2023-05-21T07:07:16.918Z,10.25
2023-05-21T07:09:43.407Z,10.65
2023-05-21T07:12:10.157Z,8.90
2023-05-21T07:14:37.601Z,9.77
2023-05-21T07:17:04.369Z,10.18
2023-05-21T07:19:31.444Z,9.40
2023-05-21T07:21:58.662Z,9.80
2023-05-21T07:24:27.444Z,9.27
2023-05-21T07:26:54.319Z,9.68
2023-05-21T07:29:21.513Z,10.63
2023-05-21T07:31:48.098Z,9.77
2023-05-21T07:34:16.041Z,9.52
2023-05-21T07:36:42.582Z,9.15
2023-05-21T07:39:09.094Z,9.55
2023-05-21T07:41:36.977Z,9.20
2023-05-21T07:44:07.190Z,9.70
2023-05-21T07:46:37.690Z,8.82
2023-05-21T07:49:04.217Z,9.05
2023-05-21T07:51:31.241Z,9.25
2023-05-21T07:53:57.747Z,8.50
2023-05-21T07:56:32.314Z,9.95
2023-05-21T07:58:59.614Z,9.02
2023-05-21T08:01:29.553Z,8.85
2023-05-21T08:03:56.527Z,9.70
2023-05-21T08:06:24.355Z,9.68
2023-05-21T08:08:50.984Z,8.65
2023-05-21T08:11:17.734Z,9.45
2023-05-21T08:13:45.507Z,9.35
2023-05-21T08:16:12.900Z,9.32
2023-05-21T08:18:39.568Z,9.65
2023-05-21T08:21:06.408Z,9.27
2023-05-21T08:23:32.997Z,9.23
2023-05-21T08:26:00.107Z,9.02
2023-05-21T08:28:27.706Z,8.75
2023-05-21T08:30:54.941Z,9.05
2023-05-21T08:33:23.385Z,9.05
2023-05-21T08:35:49.931Z,8.48
2023-05-21T08:38:30.534Z,9.27
2023-05-21T08:41:07.645Z,9.88
2023-05-21T08:43:37.123Z,8.43
2023-05-21T08:46:04.692Z,8.40
2023-05-21T08:48:34.857Z,9.02
2023-05-21T08:51:01.494Z,9.07
2023-05-21T08:53:34.878Z,9.88
2023-05-21T08:56:03.792Z,8.57
2023-05-21T08:58:46.251Z,9.27
2023-05-21T09:01:19.105Z,9.30
2023-05-21T09:03:50.377Z,8.95
2023-05-21T09:06:17.230Z,9.25
2023-05-21T09:08:47.442Z,9.23
2023-05-21T09:11:32.375Z,9.15
2023-05-21T09:14:00.785Z,9.68
2023-05-21T09:16:49.780Z,9.68
2023-05-21T09:19:24.134Z,8.32
2023-05-21T09:21:53.765Z,9.27
2023-05-21T09:24:24.354Z,8.50
2023-05-21T09:26:52.463Z,9.15
2023-05-21T09:29:19.562Z,9.00
2023-05-21T09:31:46.624Z,8.80
2023-05-21T09:34:14.244Z,8.77
2023-05-21T09:36:43.814Z,8.38
2023-05-21T09:39:16.166Z,7.70
2023-05-21T09:41:43.113Z,8.57
2023-05-21T09:44:10.701Z,8.00
2023-05-21T09:46:41.437Z,9.90
2023-05-21T09:49:22.942Z,8.85
2023-05-21T09:51:49.809Z,9.10
2023-05-21T09:54:16.356Z,8.57
2023-05-21T09:56:42.907Z,8.80
2023-05-21T09:59:09.756Z,8.95
2023-05-21T10:01:37.474Z,8.85
2023-05-21T10:04:08.776Z,8.85
2023-05-21T10:06:42.009Z,9.07
2023-05-21T10:09:11.005Z,9.55
2023-05-21T10:11:39.559Z,8.65
2023-05-21T10:14:07.778Z,8.95
2023-05-21T10:16:36.203Z,8.40
2023-05-21T10:19:04.362Z,8.95
2023-05-21T10:21:33.307Z,8.75
2023-05-21T10:24:02.071Z,8.93
2023-05-21T10:26:28.798Z,8.73
2023-05-21T10:28:56.463Z,8.70
2023-05-21T10:31:23.425Z,8.82
2023-05-21T10:33:51.082Z,8.80
2023-05-21T10:36:20.655Z,8.60
2023-05-21T10:38:47.549Z,9.55
2023-05-21T10:41:17.249Z,8.90
2023-05-21T10:44:06.785Z,8.60
2023-05-21T10:46:48.538Z,9.38
2023-05-21T10:49:49.112Z,9.25
2023-05-21T10:52:33.801Z,8.10
2023-05-21T10:55:23.536Z,8.82
2023-05-21T10:58:10.956Z,8.60
2023-05-21T11:00:38.461Z,8.43
2023-05-21T11:03:06.179Z,8.25
2023-05-21T11:05:40.468Z,7.95
2023-05-21T11:08:21.370Z,7.88
2023-05-21T11:10:52.776Z,8.90
2023-05-21T11:13:22.411Z,8.68
2023-05-21T11:15:57.723Z,8.63
2023-05-21T11:18:47.097Z,8.77
2023-05-21T11:21:15.390Z,7.93
2023-05-21T11:23:51.195Z,9.20
2023-05-21T11:26:19.397Z,8.93
2023-05-21T11:28:46.098Z,8.95
2023-05-21T11:31:29.749Z,7.35
2023-05-21T11:34:15.670Z,7.63
2023-05-21T11:36:44.920Z,7.32
2023-05-21T11:39:17.802Z,7.47
2023-05-21T11:41:53.595Z,6.72
2023-05-21T11:44:48.502Z,7.00
2023-05-21T11:47:19.152Z,7.20
2023-05-21T11:49:46.581Z,6.82
2023-05-21T11:52:14.046Z,6.20
2023-05-21T11:54:46.081Z,6.70
2023-05-21T11:57:16.600Z,6.13
2023-05-21T11:59:43.240Z,6.78
2023-05-21T12:02:09.741Z,7.20
2023-05-21T12:04:36.776Z,6.85
2023-05-21T12:07:13.336Z,6.90
2023-05-21T12:09:40.790Z,6.25
2023-05-21T12:12:11.529Z,6.50
2023-05-21T12:17:07.015Z,6.38
2023-05-21T12:19:34.738Z,5.97
2023-05-21T12:22:05.425Z,6.43
2023-05-21T12:27:01.023Z,6.03
2023-05-21T12:29:29.728Z,5.22
2023-05-21T12:31:59.765Z,6.57
2023-05-21T12:34:41.566Z,5.45
2023-05-21T12:37:08.274Z,5.93
2023-05-21T12:39:39.351Z,5.72
2023-05-21T12:42:06.997Z,6.03
2023-05-21T12:44:34.861Z,5.85
2023-05-21T12:47:03.502Z,5.95
2023-05-21T12:49:37.524Z,5.90
2023-05-21T12:52:14.272Z,5.68
2023-05-21T12:54:43.779Z,6.35
2023-05-21T12:57:28.268Z,5.32
2023-05-21T12:59:59.643Z,10.18
2023-05-21T13:02:28.947Z,5.30
2023-05-21T13:05:00.800Z,6.60
2023-05-21T13:07:29.293Z,6.50
2023-05-21T13:09:56.493Z,6.28
2023-05-21T13:12:24.515Z,5.95
2023-05-21T13:14:51.856Z,6.72
2023-05-21T13:17:19.430Z,6.15
2023-05-21T13:20:20.136Z,6.63
2023-05-21T13:25:16.334Z,6.03
2023-05-21T13:27:43.357Z,6.13
2023-05-21T13:30:11.702Z,4.95
2023-05-21T13:32:39.512Z,5.38
2023-05-21T13:35:07.230Z,4.65
2023-05-21T13:37:37.884Z,5.13
2023-05-21T13:42:31.312Z,5.43
2023-05-21T13:44:58.244Z,6.03
2023-05-21T13:47:24.801Z,6.03
2023-05-21T13:49:51.552Z,7.88
2023-05-21T13:52:18.292Z,8.68
2023-05-21T13:54:44.757Z,5.68
2023-05-21T13:57:11.226Z,10.20
2023-05-21T13:59:37.713Z,7.63
2023-05-21T14:02:04.202Z,12.25
2023-05-21T14:04:30.675Z,7.70
2023-05-21T14:06:57.326Z,9.95
2023-05-21T14:09:27.042Z,7.00
2023-05-21T14:11:55.029Z,9.80
2023-05-21T14:14:22.015Z,11.85
2023-05-21T14:16:49.404Z,14.13
2023-05-21T14:19:16.702Z,9.70
2023-05-21T14:21:43.586Z,7.68
2023-05-21T14:24:10.470Z,7.85
2023-05-21T14:26:39.970Z,13.52
2023-05-21T14:29:06.828Z,7.18
2023-05-21T14:31:33.339Z,6.97
2023-05-21T14:33:59.858Z,9.25
2023-05-21T14:36:26.322Z,8.80
2023-05-21T14:38:52.837Z,6.93
2023-05-21T14:41:19.370Z,9.02
2023-05-21T14:43:45.838Z,12.48
2023-05-21T14:46:12.325Z,9.95
2023-05-21T14:48:38.881Z,8.23
2023-05-21T14:51:05.385Z,7.03
2023-05-21T14:53:32.279Z,8.30
2023-05-21T14:55:59.056Z,7.47
2023-05-21T14:58:25.534Z,6.20
2023-05-21T15:00:52.009Z,7.55
2023-05-21T15:03:18.547Z,8.25
2023-05-21T15:05:45.055Z,7.18
2023-05-21T15:08:11.520Z,8.07
2023-05-21T15:10:38.134Z,7.38
2023-05-21T15:13:04.599Z,7.72
2023-05-21T15:15:31.058Z,7.32
2023-05-21T15:17:58.059Z,6.60
2023-05-21T15:20:24.694Z,6.10
2023-05-21T15:22:53.495Z,7.18
2023-05-21T15:25:23.534Z,7.65
2023-05-21T15:27:50.713Z,7.78
2023-05-21T15:30:17.471Z,8.70
2023-05-21T15:32:44.076Z,9.70
2023-05-21T15:35:10.694Z,9.23
2023-05-21T15:37:37.319Z,9.43
2023-05-21T15:40:04.502Z,15.10
2023-05-21T15:42:31.891Z,8.45
2023-05-21T15:44:58.853Z,8.07
2023-05-21T15:47:25.554Z,7.22
2023-05-21T15:49:52.064Z,7.70
2023-05-21T15:52:19.965Z,20.63
2023-05-21T15:54:47.053Z,11.90
2023-05-21T15:57:13.569Z,8.80
2023-05-21T15:59:40.112Z,7.15
2023-05-21T16:02:07.695Z,7.35
2023-05-21T16:04:34.481Z,7.72
2023-05-21T16:07:00.932Z,10.65
2023-05-21T16:09:27.416Z,12.25
2023-05-21T16:11:53.901Z,8.52
2023-05-21T16:14:20.417Z,14.38
2023-05-21T16:16:46.929Z,9.15
2023-05-21T16:19:13.485Z,10.68
2023-05-21T16:21:39.992Z,8.65
2023-05-21T16:24:06.741Z,8.48
2023-05-21T16:26:33.235Z,8.10
2023-05-21T16:29:02.236Z,11.70
2023-05-21T16:31:29.045Z,14.75
2023-05-21T16:33:55.846Z,10.75
2023-05-21T16:36:22.387Z,11.15
2023-05-21T16:38:48.945Z,10.45
2023-05-21T16:41:15.605Z,7.88
2023-05-21T16:43:42.173Z,6.75
2023-05-21T16:46:08.677Z,6.75
2023-05-21T16:48:37.324Z,7.93
2023-05-21T16:51:04.597Z,7.80
2023-05-21T16:53:31.369Z,5.88
2023-05-21T16:55:57.921Z,6.20
2023-05-21T16:58:24.540Z,5.93
2023-05-21T17:00:51.082Z,6.03
2023-05-21T17:03:17.940Z,10.90
2023-05-21T17:05:44.642Z,10.27
2023-05-21T17:08:11.204Z,9.88
2023-05-21T17:10:37.700Z,11.43
2023-05-21T17:13:13.961Z,8.10
2023-05-21T17:15:47.706Z,7.28
2023-05-21T17:18:14.315Z,6.07
2023-05-21T17:20:41.015Z,7.38
2023-05-21T17:23:07.516Z,6.60
2023-05-21T17:25:34.682Z,7.13
2023-05-21T17:28:01.489Z,5.60
2023-05-21T17:30:27.948Z,5.93
2023-05-21T17:32:54.636Z,6.30
2023-05-21T17:35:21.195Z,6.20
2023-05-21T17:37:48.080Z,6.55
2023-05-21T17:40:14.597Z,6.18
2023-05-21T17:42:41.382Z,5.35
2023-05-21T17:45:09.269Z,6.07
2023-05-21T17:47:36.053Z,5.28
2023-05-21T17:50:02.757Z,5.32
2023-05-21T17:52:29.267Z,5.45
2023-05-21T17:54:55.811Z,6.25
2023-05-21T17:57:22.425Z,6.57
2023-05-21T17:59:48.904Z,6.82
2023-05-21T18:02:15.352Z,7.13
2023-05-21T18:04:41.822Z,6.70
2023-05-21T18:07:08.259Z,6.82
2023-05-21T18:09:34.768Z,6.57
2023-05-21T18:12:02.944Z,6.40
2023-05-21T18:14:29.402Z,7.30
2023-05-21T18:16:56.015Z,6.20
2023-05-21T18:19:22.626Z,6.85
2023-05-21T18:21:49.471Z,7.20
2023-05-21T18:24:15.952Z,6.78
2023-05-21T18:26:43.397Z,6.20
2023-05-21T18:29:11.234Z,6.50
2023-05-21T18:31:37.832Z,7.10
2023-05-21T18:34:04.432Z,7.10
2023-05-21T18:36:38.354Z,6.70
2023-05-21T18:39:08.947Z,7.68
2023-05-21T18:41:36.067Z,8.00
2023-05-21T18:44:02.720Z,7.18
2023-05-21T18:46:29.588Z,7.35
2023-05-21T18:48:56.378Z,8.32
2023-05-21T18:51:22.922Z,7.13
2023-05-21T18:53:49.527Z,7.90
2023-05-21T18:56:17.014Z,7.93
2023-05-21T18:58:43.484Z,7.70
2023-05-21T19:01:10.325Z,7.50
2023-05-21T19:03:38.017Z,7.53
2023-05-21T19:06:04.702Z,6.80
2023-05-21T19:08:31.169Z,7.38
2023-05-21T19:10:57.760Z,8.07
2023-05-21T19:13:24.349Z,8.48
2023-05-21T19:15:50.841Z,13.52
2023-05-21T19:18:17.443Z,7.20
2023-05-21T19:20:43.924Z,8.55
2023-05-21T19:23:10.665Z,8.88
2023-05-21T19:25:37.518Z,9.38
2023-05-21T19:28:04.048Z,7.18
2023-05-21T19:30:30.632Z,8.45
2023-05-21T19:32:57.484Z,7.72
2023-05-21T19:35:23.959Z,8.25
2023-05-21T19:37:50.537Z,8.15
2023-05-21T19:40:17.651Z,7.95
2023-05-21T19:42:44.796Z,8.38
2023-05-21T19:45:11.777Z,8.50
2023-05-21T19:47:40.980Z,8.40
2023-05-21T19:50:08.172Z,8.50
2023-05-21T19:52:34.659Z,8.38
2023-05-21T19:55:04.800Z,8.63
2023-05-21T19:57:32.573Z,7.97
2023-05-21T19:59:59.478Z,8.50
2023-05-21T20:02:28.550Z,8.02
2023-05-21T20:04:56.926Z,8.55
2023-05-21T20:07:23.790Z,8.05
2023-05-21T20:09:50.572Z,8.38
2023-05-21T20:12:17.050Z,8.05
2023-05-21T20:14:46.748Z,8.23
2023-05-21T20:17:14.400Z,8.60
2023-05-21T20:19:41.163Z,8.20
2023-05-21T20:22:07.694Z,8.15
2023-05-21T20:24:34.234Z,8.50
2023-05-21T20:27:01.600Z,8.65
2023-05-21T20:29:28.851Z,8.60
2023-05-21T20:31:55.493Z,9.23
2023-05-21T20:34:22.187Z,8.70
2023-05-21T20:36:48.719Z,8.95
2023-05-21T20:39:15.481Z,8.48
2023-05-21T20:41:44.834Z,8.82
2023-05-21T20:44:11.970Z,8.15
2023-05-21T20:46:38.989Z,9.23
2023-05-21T20:49:06.154Z,8.68
2023-05-21T20:51:33.081Z,8.77
2023-05-21T20:53:59.653Z,8.63
2023-05-21T20:56:40.715Z,8.68
2023-05-21T20:59:09.886Z,8.90
2023-05-21T21:01:38.165Z,8.00
2023-05-21T21:04:05.057Z,8.57
2023-05-21T21:06:31.930Z,9.23
2023-05-21T21:08:58.620Z,8.88
2023-05-21T21:11:26.647Z,9.10
2023-05-21T21:13:53.163Z,8.23
2023-05-21T21:16:19.798Z,9.00
2023-05-21T21:18:47.096Z,8.82
2023-05-21T21:21:13.860Z,9.07
2023-05-21T21:23:40.505Z,8.55
2023-05-21T21:26:07.177Z,9.05
2023-05-21T21:28:34.022Z,9.15
2023-05-21T21:31:00.729Z,8.88
2023-05-21T21:33:28.399Z,9.35
2023-05-21T21:35:55.008Z,9.55
2023-05-21T21:38:21.679Z,8.98
2023-05-21T21:40:48.268Z,9.00
2023-05-21T21:43:14.794Z,8.82
2023-05-21T21:45:41.354Z,9.48
2023-05-21T21:48:07.936Z,9.40
2023-05-21T21:50:34.601Z,8.48
2023-05-21T21:53:01.202Z,9.32
2023-05-21T21:55:29.514Z,9.25
2023-05-21T21:57:55.999Z,8.85
2023-05-21T22:00:26.381Z,8.88
2023-05-21T22:02:52.954Z,9.40
2023-05-21T22:05:19.468Z,8.60
2023-05-21T22:07:46.530Z,9.65
2023-05-21T22:10:17.217Z,9.52
2023-05-21T22:12:45.931Z,8.80
2023-05-21T22:15:19.236Z,9.63
2023-05-21T22:17:47.310Z,9.35
2023-05-21T22:20:13.976Z,9.38
2023-05-21T22:22:40.594Z,9.80
2023-05-21T22:25:07.351Z,9.50
2023-05-21T22:27:34.016Z,9.40
2023-05-21T22:30:00.887Z,9.73
2023-05-21T22:32:27.406Z,9.73
2023-05-21T22:34:53.908Z,9.38
2023-05-21T22:37:20.421Z,9.88
2023-05-21T22:39:46.884Z,9.38
2023-05-21T22:42:13.434Z,9.68
2023-05-21T22:44:40.108Z,9.23
2023-05-21T22:47:09.269Z,10.35
2023-05-21T22:49:38.062Z,9.52
2023-05-21T22:52:06.363Z,9.35
2023-05-21T22:54:32.822Z,9.27
2023-05-21T22:57:01.205Z,10.00
2023-05-21T22:59:29.224Z,9.77
2023-05-21T23:01:55.875Z,9.05
2023-05-21T23:04:35.732Z,9.98
2023-05-21T23:07:09.710Z,9.75
2023-05-21T23:09:36.529Z,9.18
2023-05-21T23:12:03.739Z,10.52
2023-05-21T23:14:30.460Z,9.88
2023-05-21T23:17:01.704Z,9.65
2023-05-21T23:19:29.553Z,9.35
2023-05-21T23:21:56.373Z,9.77
2023-05-21T23:24:23.369Z,10.00
2023-05-21T23:26:50.010Z,9.90
2023-05-21T23:29:16.628Z,9.85
2023-05-21T23:31:43.645Z,10.15
2023-05-21T23:34:10.294Z,10.27
2023-05-21T23:36:36.789Z,10.40
2023-05-21T23:39:03.509Z,9.70
2023-05-21T23:41:30.168Z,10.02
2023-05-21T23:43:57.607Z,10.30
2023-05-21T23:46:24.111Z,10.55
2023-05-21T23:48:50.617Z,10.95
2023-05-21T23:51:19.147Z,11.20
2023-05-21T23:53:45.784Z,9.35
2023-05-21T23:56:12.399Z,10.05
2023-05-21T23:58:38.865Z,10.68
